Time;durP1;ratioP1;P1;durP2;ratioP2;P2;SDS_P1;SDS_P2;PMS_P1;PMS_P2;Temp;Humidity;BMP_temperature;BMP_pressure;BME280_temperature;BME280_humidity;BME280_pressure;Samples;Min_cycle;Max_cycle;Signal;HPM_P1;HPM_P2
2023/08/07 00:01:54;;;;;;;0.38;0.00;;;16.50;99.90;;;;;;4860938;29;20144;-78
2023/08/07 00:04:48;;;;;;;0.00;0.00;;;16.40;99.90;;;;;;4803693;29;20969;-79
2023/08/07 00:07:43;;;;;;;0.25;0.00;;;16.50;99.90;;;;;;4837020;29;20034;-79
2023/08/07 00:10:18;;;;;;;0.30;0.00;;;16.40;99.90;;;;;;4943375;23;20050;-79
2023/08/07 00:12:55;;;;;;;0.00;0.00;;;16.50;99.90;;;;;;4854315;24;20038;-79
2023/08/07 00:15:25;;;;;;;0.00;0.00;;;16.40;99.90;;;;;;4858657;29;20077;-79
2023/08/07 00:18:21;;;;;;;0.65;0.00;;;16.40;99.90;;;;;;5155675;23;20062;-79
2023/08/07 00:20:55;;;;;;;0.28;0.00;;;16.90;99.90;;;;;;5088935;24;20058;-78
2023/08/07 00:23:28;;;;;;;0.00;0.00;;;16.50;99.90;;;;;;4935629;23;20106;-79
2023/08/07 00:26:14;;;;;;;0.35;0.00;;;16.40;99.90;;;;;;4839383;29;20057;-79
2023/08/07 00:28:43;;;;;;;0.00;0.00;;;16.40;99.90;;;;;;4814984;29;20099;-79
2023/08/07 00:31:12;;;;;;;0.10;0.00;;;16.30;99.90;;;;;;4827424;29;20145;-78
2023/08/07 00:33:42;;;;;;;0.50;0.00;;;16.40;99.90;;;;;;4842933;29;20061;-79
2023/08/07 00:36:28;;;;;;;4.13;0.10;;;16.40;99.90;;;;;;4815168;29;20039;-79
2023/08/07 00:39:00;;;;;;;0.50;0.00;;;16.30;99.90;;;;;;4831287;29;20077;-79
2023/08/07 00:41:39;;;;;;;0.10;0.00;;;16.40;99.90;;;;;;4830749;29;20070;-79
2023/08/07 00:44:12;;;;;;;0.10;0.00;;;16.30;99.90;;;;;;4843830;29;20301;-78
2023/08/07 00:46:59;;;;;;;0.00;0.00;;;16.40;99.90;;;;;;4835917;29;20100;-78
2023/08/07 00:53:43;;;;;;;1.00;0.00;;;16.40;99.90;;;;;;4830129;29;20065;-79
2023/08/07 00:56:13;;;;;;;0.22;0.00;;;16.50;99.90;;;;;;4822285;29;20053;-79
2023/08/07 00:58:42;;;;;;;0.47;0.00;;;16.40;99.90;;;;;;4789153;29;20054;-78
2023/08/07 01:01:09;;;;;;;0.40;0.00;;;16.50;99.90;;;;;;4809961;29;20067;-79
2023/08/07 01:03:38;;;;;;;0.00;0.00;;;16.40;99.90;;;;;;4872336;23;20085;-79
2023/08/07 01:06:28;;;;;;;0.75;0.00;;;16.40;99.90;;;;;;4788945;29;20062;-78
2023/08/07 01:09:08;;;;;;;0.43;0.00;;;16.40;99.90;;;;;;4808956;29;23057;-78
2023/08/07 01:12:02;;;;;;;0.00;0.00;;;16.40;99.90;;;;;;4799649;29;20058;-79
2023/08/07 01:14:42;;;;;;;0.50;0.00;;;16.40;99.90;;;;;;4802261;29;20118;-79
2023/08/07 01:17:17;;;;;;;0.45;0.00;;;16.40;99.90;;;;;;4810093;29;20042;-78
2023/08/07 01:19:49;;;;;;;0.03;0.00;;;16.30;99.90;;;;;;4844610;24;20057;-79
2023/08/07 01:22:18;;;;;;;0.00;0.00;;;16.40;99.90;;;;;;4991676;24;20074;-79
2023/08/07 01:24:49;;;;;;;0.00;0.00;;;16.40;99.90;;;;;;4853363;29;20061;-78
2023/08/07 01:27:20;;;;;;;0.00;0.00;;;16.50;99.90;;;;;;4854331;29;20485;-78
2023/08/07 01:29:54;;;;;;;0.65;0.00;;;16.40;99.90;;;;;;5051260;23;20119;-79
2023/08/07 01:32:35;;;;;;;0.80;0.00;;;16.60;99.90;;;;;;4848033;29;20053;-79
2023/08/07 01:35:07;;;;;;;0.38;0.00;;;16.50;99.90;;;;;;4859445;29;20062;-79
2023/08/07 01:37:44;;;;;;;0.00;0.00;;;16.50;99.90;;;;;;5038858;23;20036;-79
2023/08/07 01:40:14;;;;;;;0.52;0.00;;;16.50;99.90;;;;;;4871108;29;20068;-79
2023/08/07 01:42:42;;;;;;;0.08;0.00;;;16.40;99.90;;;;;;4869837;29;20057;-79
2023/08/07 01:45:28;;;;;;;0.03;0.00;;;16.40;99.90;;;;;;4869052;29;20078;-78
2023/08/07 01:48:01;;;;;;;0.00;0.00;;;15.50;99.90;;;;;;4843356;29;20059;-76
2023/08/07 01:50:30;;;;;;;1.73;0.00;;;17.00;99.90;;;;;;4845321;29;20740;-78
2023/08/07 01:53:02;;;;;;;0.00;0.00;;;16.50;99.90;;;;;;4871488;24;20054;-78
2023/08/07 01:55:43;;;;;;;0.85;0.00;;;16.50;99.90;;;;;;4833973;29;20129;-79
2023/08/07 01:58:10;;;;;;;0.47;0.00;;;16.50;99.90;;;;;;4835394;29;20055;-77
2023/08/07 02:00:41;;;;;;;0.08;0.00;;;16.40;99.90;;;;;;4850375;29;20045;-79
2023/08/07 02:03:12;;;;;;;1.00;0.00;;;16.40;99.90;;;;;;4843361;29;20041;-78
2023/08/07 02:05:39;;;;;;;0.00;0.00;;;16.40;99.90;;;;;;4863417;29;20064;-78
2023/08/07 02:08:07;;;;;;;1.30;0.00;;;16.20;99.90;;;;;;4827556;29;20394;-79
2023/08/07 02:10:37;;;;;;;0.00;0.00;;;16.30;99.90;;;;;;4852051;29;20049;-78
2023/08/07 02:16:04;;;;;;;0.30;0.00;;;16.40;99.90;;;;;;4829813;29;20038;-79
2023/08/07 02:18:33;;;;;;;0.20;0.00;;;16.30;99.90;;;;;;4813136;29;20056;-79
2023/08/07 02:24:27;;;;;;;1.85;0.00;;;16.30;99.90;;;;;;4857350;29;20057;-79
2023/08/07 02:27:00;;;;;;;0.52;0.00;;;16.10;99.90;;;;;;4922173;23;20039;-79
2023/08/07 02:29:39;;;;;;;0.10;0.00;;;16.20;99.90;;;;;;4877280;23;20042;-78
2023/08/07 02:32:09;;;;;;;0.00;0.00;;;16.30;99.90;;;;;;4845364;29;20089;-77
2023/08/07 02:34:42;;;;;;;0.20;0.00;;;16.30;99.90;;;;;;4838231;29;20989;-78
2023/08/07 02:37:26;;;;;;;0.00;0.00;;;16.30;99.90;;;;;;4838903;29;20119;-78
2023/08/07 02:40:15;;;;;;;0.43;0.00;;;16.20;99.90;;;;;;4823572;29;20058;-79
2023/08/07 02:42:46;;;;;;;1.40;0.00;;;16.20;99.90;;;;;;5100230;23;20059;-79
2023/08/07 02:45:51;;;;;;;0.73;0.20;;;16.20;99.90;;;;;;4821805;29;20537;-79
2023/08/07 02:48:20;;;;;;;0.45;0.00;;;16.30;99.90;;;;;;4888717;24;20054;-79
2023/08/07 02:50:51;;;;;;;0.00;0.00;;;16.30;99.90;;;;;;4848997;29;20101;-79
2023/08/07 02:53:35;;;;;;;0.20;0.00;;;16.20;99.90;;;;;;4869849;23;20054;-78
2023/08/07 02:56:17;;;;;;;2.13;0.00;;;15.80;99.90;;;;;;4830796;29;20052;-79
2023/08/07 02:58:54;;;;;;;0.70;0.00;;;16.30;99.90;;;;;;4863103;23;20050;31
2023/08/07 03:01:52;;;;;;;0.00;0.00;;;16.30;99.90;;;;;;4813799;29;20066;-79
2023/08/07 03:07:39;;;;;;;0.08;0.00;;;16.20;99.90;;;;;;4809504;29;20047;-79
2023/08/07 03:10:07;;;;;;;0.13;0.00;;;16.20;99.90;;;;;;4883185;23;20089;-78
2023/08/07 03:12:42;;;;;;;1.17;0.00;;;16.10;99.90;;;;;;4846017;29;20053;-79
2023/08/07 03:15:15;;;;;;;1.38;0.00;;;16.00;99.90;;;;;;4833847;29;20065;-78
2023/08/07 03:17:44;;;;;;;0.13;0.00;;;16.10;99.90;;;;;;5102890;23;20038;-78
2023/08/07 03:20:39;;;;;;;0.10;0.00;;;16.10;99.90;;;;;;4818317;29;20034;-79
2023/08/07 03:23:07;;;;;;;0.10;0.00;;;16.00;99.90;;;;;;4858956;23;20062;-80
2023/08/07 03:25:41;;;;;;;0.22;0.00;;;16.00;99.90;;;;;;4799572;29;20824;-80
2023/08/07 03:28:16;;;;;;;0.75;0.00;;;16.00;99.90;;;;;;4825585;29;20077;-79
2023/08/07 03:30:44;;;;;;;0.00;0.00;;;16.00;99.90;;;;;;4810634;29;20721;-80
2023/08/07 03:33:13;;;;;;;0.15;0.00;;;16.00;99.90;;;;;;4817552;29;20023;-79
2023/08/07 03:35:54;;;;;;;1.00;0.00;;;16.00;99.90;;;;;;4833980;29;20043;-79
2023/08/07 03:38:29;;;;;;;0.85;0.20;;;16.00;99.90;;;;;;4826601;29;20065;-80
2023/08/07 03:41:19;;;;;;;0.10;0.00;;;16.00;99.90;;;;;;4803142;29;20062;-80
2023/08/07 03:43:47;;;;;;;0.43;0.00;;;15.90;99.90;;;;;;4783937;29;20047;-78
2023/08/07 03:46:15;;;;;;;0.10;0.00;;;16.10;99.90;;;;;;4785090;29;20055;-80
2023/08/07 03:48:45;;;;;;;0.20;0.00;;;16.00;99.90;;;;;;4794610;29;20045;-80
2023/08/07 03:51:16;;;;;;;0.90;0.00;;;15.30;99.90;;;;;;4794750;29;20419;-80
2023/08/07 03:54:05;;;;;;;0.10;0.00;;;16.00;99.90;;;;;;4865986;23;20474;-79
2023/08/07 03:56:36;;;;;;;1.50;0.00;;;16.00;99.90;;;;;;4812504;29;20062;-80
2023/08/07 03:59:10;;;;;;;0.10;0.00;;;15.40;99.90;;;;;;4821714;29;20053;-79
2023/08/07 04:01:47;;;;;;;1.48;0.10;;;15.70;99.90;;;;;;4948695;24;20038;-78
2023/08/07 04:10:25;;;;;;;0.60;0.00;;;16.00;99.90;;;;;;4834091;29;20046;-79
2023/08/07 04:12:57;;;;;;;2.35;0.55;;;16.10;99.90;;;;;;4937217;23;20030;31
2023/08/07 04:15:28;;;;;;;0.10;0.00;;;15.10;99.90;;;;;;5130406;23;20024;31
2023/08/07 04:17:56;;;;;;;0.10;0.00;;;16.10;99.90;;;;;;4843144;29;20046;-79
2023/08/07 04:20:25;;;;;;;1.23;0.00;;;16.10;99.90;;;;;;4894154;23;20070;-79
2023/08/07 04:22:53;;;;;;;1.90;0.00;;;16.20;99.90;;;;;;4862563;29;20057;-80
2023/08/07 04:25:32;;;;;;;0.75;0.00;;;16.10;99.90;;;;;;5015797;23;20067;-79
2023/08/07 04:28:00;;;;;;;0.28;0.00;;;16.10;99.90;;;;;;4834123;29;20064;-79
2023/08/07 04:33:36;;;;;;;0.50;0.00;;;16.10;99.90;;;;;;4933916;23;20425;-79
2023/08/07 04:36:10;;;;;;;0.13;0.00;;;16.10;99.90;;;;;;4969358;23;20028;-79
2023/08/07 04:38:37;;;;;;;0.10;0.00;;;16.10;99.90;;;;;;4867710;29;20025;-79
2023/08/07 04:41:05;;;;;;;0.38;0.00;;;15.90;99.90;;;;;;4859715;29;20214;-79
2023/08/07 04:43:36;;;;;;;0.77;0.03;;;16.10;99.90;;;;;;4908477;23;20036;-78
2023/08/07 04:46:24;;;;;;;0.10;0.00;;;16.10;99.90;;;;;;4881644;23;20049;31
2023/08/07 04:48:54;;;;;;;0.30;0.00;;;16.10;99.90;;;;;;4784818;29;20038;-79
2023/08/07 04:51:31;;;;;;;0.38;0.00;;;16.10;99.40;;;;;;5119776;23;20036;-79
2023/08/07 04:54:00;;;;;;;4.07;0.40;;;16.20;99.90;;;;;;4826594;29;20506;-80
2023/08/07 04:56:27;;;;;;;1.70;0.00;;;15.90;99.40;;;;;;5005347;23;20502;-78
2023/08/07 04:59:00;;;;;;;0.30;0.00;;;16.30;99.40;;;;;;4946820;24;20054;-79
2023/08/07 05:01:29;;;;;;;1.35;0.00;;;16.30;98.70;;;;;;4827764;29;20038;-79
2023/08/07 05:04:01;;;;;;;0.50;0.10;;;16.30;99.10;;;;;;4827194;29;20083;-79
2023/08/07 05:06:43;;;;;;;0.52;0.00;;;16.20;98.60;;;;;;5011708;23;20024;31
2023/08/07 05:09:10;;;;;;;1.33;0.10;;;16.30;98.50;;;;;;4809474;29;20757;-78
2023/08/07 05:11:40;;;;;;;1.95;0.05;;;16.30;98.00;;;;;;4806410;29;20104;-79
2023/08/07 05:14:44;;;;;;;0.10;0.00;;;16.40;97.50;;;;;;4899128;23;23371;-78
2023/08/07 05:17:12;;;;;;;0.10;0.00;;;16.30;97.40;;;;;;4821673;29;20053;-78
2023/08/07 05:19:40;;;;;;;0.35;0.00;;;16.30;97.70;;;;;;4824154;29;20064;-77
2023/08/07 05:22:08;;;;;;;0.10;0.00;;;16.50;97.70;;;;;;4808427;29;20146;-78
2023/08/07 05:24:40;;;;;;;0.93;0.10;;;16.60;97.80;;;;;;4832658;29;20070;-78
2023/08/07 05:27:09;;;;;;;;;;;16.70;97.40;;;;;;4822043;29;20050;-79
2023/08/07 05:29:43;;;;;;;0.63;0.10;;;16.80;96.10;;;;;;4835870;29;19932;-76
2023/08/07 05:32:12;;;;;;;0.90;0.20;;;16.90;96.20;;;;;;4837021;29;20165;-76
2023/08/07 05:34:39;;;;;;;0.52;0.00;;;17.00;96.60;;;;;;4832076;29;20065;-77
2023/08/07 05:37:09;;;;;;;1.65;0.10;;;17.10;95.30;;;;;;4821838;29;20127;-78
2023/08/07 05:39:36;;;;;;;1.30;0.00;;;17.20;95.60;;;;;;4842170;29;20035;-78
2023/08/07 05:42:10;;;;;;;0.63;0.10;;;17.40;95.90;;;;;;4812643;29;20054;-78
2023/08/07 05:44:37;;;;;;;1.27;0.20;;;17.60;94.90;;;;;;4814130;29;20717;-77
2023/08/07 05:47:05;;;;;;;0.20;0.00;;;17.60;93.70;;;;;;4794461;29;22623;-76
2023/08/07 05:49:32;;;;;;;1.63;0.25;;;17.80;93.10;;;;;;4773251;29;20218;-76
2023/08/07 05:52:00;;;;;;;0.52;0.00;;;17.70;92.60;;;;;;4777264;29;20068;-78
2023/08/07 05:54:27;;;;;;;1.42;0.10;;;17.50;93.00;;;;;;4780958;29;20064;-77
2023/08/07 05:56:54;;;;;;;0.75;0.00;;;17.60;93.80;;;;;;4798166;29;20061;-78
2023/08/07 05:59:22;;;;;;;1.20;0.00;;;17.50;93.20;;;;;;4791167;29;20058;-77
2023/08/07 06:01:53;;;;;;;0.82;0.00;;;17.40;93.00;;;;;;4795405;29;20137;-78
2023/08/07 06:04:24;;;;;;;0.50;0.00;;;17.40;92.80;;;;;;4797056;29;20422;-78
2023/08/07 06:06:51;;;;;;;0.40;0.00;;;17.40;92.20;;;;;;4782754;29;20053;-77
2023/08/07 06:09:18;;;;;;;0.20;0.00;;;17.60;92.30;;;;;;4790524;29;20050;-76
2023/08/07 06:11:45;;;;;;;1.27;0.00;;;17.60;92.50;;;;;;4776183;29;20061;-78
2023/08/07 06:14:14;;;;;;;1.38;0.03;;;17.40;91.50;;;;;;4805451;29;20046;-77
2023/08/07 06:16:43;;;;;;;2.13;0.00;;;17.50;91.70;;;;;;4791555;29;22978;-78
2023/08/07 06:19:12;;;;;;;2.17;0.00;;;17.60;91.90;;;;;;4804203;29;20055;-77
2023/08/07 06:21:57;;;;;;;0.93;0.00;;;17.60;91.60;;;;;;4769241;29;20053;-78
2023/08/07 06:24:44;;;;;;;0.45;0.00;;;17.50;91.20;;;;;;4762520;29;20407;-78
2023/08/07 06:27:11;;;;;;;1.20;0.10;;;17.30;91.80;;;;;;4795402;29;20050;-79
2023/08/07 06:29:38;;;;;;;0.22;0.00;;;17.50;91.80;;;;;;4787662;29;20055;-78
2023/08/07 06:32:06;;;;;;;0.20;0.00;;;17.60;92.00;;;;;;4778635;29;20062;-77
2023/08/07 06:34:35;;;;;;;1.73;0.00;;;17.70;92.10;;;;;;4777206;29;20191;-78
2023/08/07 06:37:02;;;;;;;1.77;0.08;;;17.60;91.30;;;;;;4780982;29;20058;-77
2023/08/07 06:39:29;;;;;;;0.45;0.00;;;17.70;90.90;;;;;;4793991;29;20058;-76
2023/08/07 06:41:57;;;;;;;0.82;0.00;;;17.80;90.50;;;;;;4764286;29;20063;-77
2023/08/07 06:44:30;;;;;;;0.47;0.00;;;18.10;90.90;;;;;;4791921;29;20517;-77
2023/08/07 06:46:58;;;;;;;1.38;0.00;;;18.00;90.20;;;;;;4789600;29;20054;-78
2023/08/07 06:49:26;;;;;;;1.65;0.20;;;18.10;90.50;;;;;;4769368;29;20062;-77
2023/08/07 06:51:53;;;;;;;0.20;0.20;;;18.10;90.30;;;;;;4759462;29;20055;-76
2023/08/07 06:54:20;;;;;;;0.20;0.00;;;17.90;89.30;;;;;;4780972;29;20041;-79
2023/08/07 06:56:48;;;;;;;1.40;0.00;;;17.80;90.30;;;;;;4767523;29;20048;-78
2023/08/07 06:59:15;;;;;;;0.13;0.00;;;17.80;90.10;;;;;;4752510;29;20904;-80
2023/08/07 07:01:42;;;;;;;0.10;0.00;;;17.80;90.20;;;;;;4784282;29;20058;-80
2023/08/07 07:04:10;;;;;;;0.17;0.00;;;17.80;90.50;;;;;;4796809;29;20081;-77
2023/08/07 07:06:37;;;;;;;0.40;0.00;;;17.80;90.70;;;;;;4747538;29;22531;-79
2023/08/07 07:09:08;;;;;;;0.10;0.00;;;17.70;90.30;;;;;;4765422;29;20717;-80
2023/08/07 07:17:26;;;;;;;3.28;0.00;;;17.80;90.40;;;;;;4888396;23;20033;-80
2023/08/07 07:19:56;;;;;;;1.17;0.15;;;17.80;90.50;;;;;;4794687;29;20103;-80
2023/08/07 07:22:28;;;;;;;1.48;0.00;;;17.90;90.50;;;;;;4897295;23;20057;-79
2023/08/07 07:24:57;;;;;;;0.60;0.00;;;18.50;90.80;;;;;;4800757;29;20054;-79
2023/08/07 07:27:25;;;;;;;0.00;0.00;;;18.00;91.00;;;;;;5007965;23;20063;-79
2023/08/07 07:29:53;;;;;;;1.27;0.00;;;18.00;90.50;;;;;;4825510;29;20069;-79
2023/08/07 07:32:20;;;;;;;0.28;0.00;;;17.90;90.00;;;;;;4870108;23;20068;-78
2023/08/07 07:34:47;;;;;;;1.40;0.00;;;18.00;90.70;;;;;;4897891;23;20065;-78
2023/08/07 07:37:16;;;;;;;1.95;0.00;;;17.90;90.10;;;;;;4873200;24;21220;-78
2023/08/07 07:39:44;;;;;;;0.95;0.10;;;18.00;90.20;;;;;;4801483;29;20050;-78
2023/08/07 07:42:21;;;;;;;0.32;0.00;;;18.10;90.50;;;;;;4907210;23;20110;-78
2023/08/07 07:44:51;;;;;;;0.25;0.00;;;18.10;90.40;;;;;;4870283;23;20062;-78
2023/08/07 07:47:19;;;;;;;0.10;0.00;;;18.30;90.10;;;;;;4808516;29;20057;-76
2023/08/07 07:49:48;;;;;;;0.70;0.00;;;18.30;89.70;;;;;;4842378;23;20155;-78
2023/08/07 07:52:15;;;;;;;0.30;0.00;;;18.40;90.10;;;;;;4973912;23;20078;-79
2023/08/07 07:54:43;;;;;;;0.38;0.10;;;18.60;90.30;;;;;;4810416;29;20166;-78
2023/08/07 07:57:10;;;;;;;1.55;0.00;;;18.80;90.50;;;;;;4824878;29;20065;-77
2023/08/07 07:59:37;;;;;;;0.30;0.00;;;17.90;89.10;;;;;;5107129;24;20053;-79
2023/08/07 08:02:05;;;;;;;1.08;0.00;;;19.10;90.30;;;;;;4811797;29;20212;-78
2023/08/07 08:04:36;;;;;;;0.20;0.00;;;19.10;89.40;;;;;;4803110;29;20067;-79
2023/08/07 08:07:05;;;;;;;1.90;0.00;;;19.10;87.00;;;;;;4778161;29;22514;-78
2023/08/07 08:09:40;;;;;;;0.10;0.00;;;19.30;86.60;;;;;;4945174;23;20058;-79
2023/08/07 08:12:08;;;;;;;4.10;0.00;;;19.60;86.60;;;;;;4860512;23;20127;-79
2023/08/07 08:14:45;;;;;;;0.22;0.03;;;19.80;86.90;;;;;;4871240;23;20073;-79
2023/08/07 08:17:26;;;;;;;0.10;0.00;;;19.70;85.90;;;;;;4908180;23;20056;-78
2023/08/07 08:19:55;;;;;;;0.10;0.00;;;19.50;88.30;;;;;;4806571;29;20080;-78
2023/08/07 08:22:22;;;;;;;0.00;0.00;;;19.40;84.20;;;;;;4790571;29;20517;-77
2023/08/07 08:24:50;;;;;;;0.10;0.00;;;19.30;84.70;;;;;;4806088;29;20052;-76
2023/08/07 08:27:17;;;;;;;0.30;0.00;;;19.10;84.00;;;;;;4805978;29;20045;-76
2023/08/07 08:29:45;;;;;;;1.08;0.00;;;19.00;84.00;;;;;;4791167;29;20552;-78
2023/08/07 08:32:13;;;;;;;0.00;0.00;;;19.00;85.40;;;;;;4812586;29;20229;-79
2023/08/07 08:34:40;;;;;;;0.10;0.00;;;19.00;84.40;;;;;;4798680;29;20057;-79
2023/08/07 08:37:10;;;;;;;2.42;0.00;;;19.10;84.40;;;;;;4813850;29;20202;-77
2023/08/07 08:39:37;;;;;;;0.77;0.00;;;19.20;84.90;;;;;;4827061;29;20061;-77
2023/08/07 08:42:05;;;;;;;0.82;0.00;;;19.20;83.90;;;;;;4802742;29;20059;-78
2023/08/07 08:44:40;;;;;;;0.60;0.00;;;19.70;84.30;;;;;;4816102;29;20543;-78
2023/08/07 08:47:10;;;;;;;0.20;0.00;;;19.70;82.80;;;;;;4832208;29;20702;-79
2023/08/07 08:49:45;;;;;;;0.25;0.10;;;19.70;83.80;;;;;;4851060;29;20143;-78
2023/08/07 08:52:13;;;;;;;1.08;0.00;;;19.70;83.50;;;;;;4859925;29;20049;-79
2023/08/07 08:54:41;;;;;;;0.10;0.00;;;19.70;83.10;;;;;;4814809;29;20408;-77
2023/08/07 08:57:09;;;;;;;0.28;0.00;;;19.70;82.70;;;;;;4919632;23;20077;-77
2023/08/07 08:59:36;;;;;;;0.10;0.00;;;19.50;83.90;;;;;;4793941;29;20177;-78
2023/08/07 09:02:04;;;;;;;0.10;0.00;;;19.50;83.10;;;;;;4810882;29;20152;-77
2023/08/07 09:04:33;;;;;;;1.02;0.00;;;19.40;82.60;;;;;;4822843;29;20064;-79
2023/08/07 09:07:01;;;;;;;1.02;0.00;;;19.50;83.60;;;;;;4791198;29;20045;-78
2023/08/07 09:09:30;;;;;;;0.25;0.00;;;19.50;82.70;;;;;;4810631;29;20041;-77
2023/08/07 09:12:00;;;;;;;1.15;0.00;;;19.40;82.70;;;;;;4819869;29;20052;-79
2023/08/07 09:14:37;;;;;;;0.17;0.00;;;19.40;83.90;;;;;;4814116;29;20041;-76
2023/08/07 09:17:06;;;;;;;0.30;0.00;;;19.30;84.80;;;;;;4802330;29;20054;-79
2023/08/07 09:19:33;;;;;;;0.05;0.00;;;19.20;83.80;;;;;;4816540;29;20054;-78
2023/08/07 09:22:08;;;;;;;0.90;0.10;;;19.20;83.90;;;;;;4981852;23;20032;31
2023/08/07 09:24:36;;;;;;;0.85;0.00;;;19.20;85.00;;;;;;4806370;29;20062;-77
2023/08/07 09:27:12;;;;;;;0.20;0.00;;;19.30;83.80;;;;;;4834274;29;20058;-79
2023/08/07 09:29:47;;;;;;;1.00;0.00;;;19.40;85.00;;;;;;4828553;29;20049;-79
2023/08/07 09:32:15;;;;;;;0.10;0.00;;;19.40;83.60;;;;;;4794401;29;20814;-77
2023/08/07 09:34:43;;;;;;;0.25;0.00;;;19.40;84.80;;;;;;4827056;29;20407;-77
2023/08/07 09:37:10;;;;;;;0.45;0.00;;;19.40;84.30;;;;;;4820859;29;20053;-79
2023/08/07 09:39:40;;;;;;;2.00;0.00;;;19.50;84.70;;;;;;4809367;29;20627;-77
2023/08/07 09:42:17;;;;;;;0.40;0.00;;;19.70;82.30;;;;;;4851446;29;20080;-77
2023/08/07 09:44:48;;;;;;;0.00;0.00;;;20.00;80.70;;;;;;4835988;29;22675;-79
2023/08/07 09:47:18;;;;;;;1.27;0.00;;;20.00;79.30;;;;;;4813657;29;20751;-78
2023/08/07 09:49:46;;;;;;;0.57;0.00;;;19.80;79.90;;;;;;4813296;29;20053;-78
2023/08/07 09:52:15;;;;;;;0.98;0.60;;;19.90;79.20;;;;;;4804348;29;20096;-77
2023/08/07 09:54:43;;;;;;;1.70;0.00;;;19.80;79.30;;;;;;4825847;29;20078;-76
2023/08/07 09:57:11;;;;;;;0.70;0.00;;;19.80;79.10;;;;;;4824356;29;20061;-78
2023/08/07 09:59:42;;;;;;;0.10;0.00;;;19.80;80.50;;;;;;4816068;29;20691;-79
2023/08/07 10:02:11;;;;;;;0.00;0.00;;;19.80;79.30;;;;;;4822291;29;20070;-77
2023/08/07 10:04:47;;;;;;;4.28;1.35;;;19.50;80.30;;;;;;4809945;29;20062;-77
2023/08/07 10:07:16;;;;;;;0.00;0.00;;;19.20;80.20;;;;;;4780600;29;20118;-76
2023/08/07 10:09:45;;;;;;;0.52;0.00;;;19.10;80.60;;;;;;4795994;29;22698;-78
2023/08/07 10:12:16;;;;;;;0.32;0.00;;;18.90;80.50;;;;;;4826182;29;20125;-76
2023/08/07 10:14:45;;;;;;;0.20;0.00;;;18.90;81.30;;;;;;4812993;29;21900;-78
2023/08/07 10:17:13;;;;;;;1.27;0.00;;;19.30;81.70;;;;;;4822793;29;20485;-78
2023/08/07 10:19:40;;;;;;;0.10;0.00;;;19.80;82.60;;;;;;4813628;29;20062;-77
2023/08/07 10:22:08;;;;;;;0.00;0.00;;;20.10;80.40;;;;;;4795614;29;20053;-78
2023/08/07 10:24:40;;;;;;;0.00;0.00;;;20.00;79.80;;;;;;4813406;29;20057;-79
2023/08/07 10:27:09;;;;;;;0.13;0.00;;;20.10;80.20;;;;;;4817627;23;20058;-77
2023/08/07 10:29:39;;;;;;;0.08;0.00;;;20.10;79.50;;;;;;4798427;29;20053;-77
2023/08/07 10:32:10;;;;;;;0.68;0.00;;;20.00;79.40;;;;;;4812019;29;20166;-77
2023/08/07 10:34:38;;;;;;;1.33;0.00;;;20.10;79.50;;;;;;4797269;29;22581;-77
2023/08/07 10:37:08;;;;;;;0.00;0.00;;;20.00;78.60;;;;;;4798755;29;20630;-78
2023/08/07 10:39:38;;;;;;;0.00;0.00;;;19.80;79.30;;;;;;4802907;29;20087;-78
2023/08/07 10:42:05;;;;;;;1.10;0.00;;;19.70;79.20;;;;;;4774242;29;22608;-77
2023/08/07 10:44:33;;;;;;;0.20;0.00;;;19.60;79.80;;;;;;4786704;29;20054;-77
2023/08/07 10:47:32;;;;;;;0.38;0.00;;;19.90;80.90;;;;;;4793626;29;20582;-78
2023/08/07 10:49:59;;;;;;;0.80;0.00;;;19.90;78.40;;;;;;4769368;29;20036;-79
2023/08/07 10:52:28;;;;;;;0.00;0.00;;;20.00;79.70;;;;;;4726226;29;20039;-78
2023/08/07 10:54:55;;;;;;;0.13;0.00;;;20.10;79.50;;;;;;4752439;29;20066;-79
2023/08/07 10:57:23;;;;;;;0.22;0.00;;;20.00;78.50;;;;;;4749759;29;20419;-78
2023/08/07 11:00:01;;;;;;;0.20;0.00;;;19.70;79.20;;;;;;4780182;29;20107;-78
2023/08/07 11:02:30;;;;;;;1.27;0.00;;;19.40;79.70;;;;;;4750069;29;20075;-79
2023/08/07 11:04:58;;;;;;;0.20;0.00;;;19.40;80.20;;;;;;4760579;29;20187;-77
2023/08/07 11:07:29;;;;;;;0.10;0.00;;;19.50;80.80;;;;;;4775293;29;20070;-79
2023/08/07 11:10:07;;;;;;;0.52;0.00;;;19.70;80.80;;;;;;4813119;24;20106;-78
2023/08/07 11:12:38;;;;;;;0.10;0.00;;;20.10;80.50;;;;;;4809561;29;20195;-78
2023/08/07 11:15:26;;;;;;;0.60;0.00;;;19.90;79.80;;;;;;4786860;29;20053;-79
2023/08/07 11:17:55;;;;;;;2.75;0.00;;;19.80;81.40;;;;;;4819285;29;20171;-79
2023/08/07 11:20:26;;;;;;;0.80;0.00;;;20.10;80.80;;;;;;4816527;29;20045;-79
2023/08/07 11:22:56;;;;;;;0.00;0.00;;;19.80;81.60;;;;;;4800635;29;20054;-79
2023/08/07 11:25:26;;;;;;;0.10;0.00;;;19.70;82.40;;;;;;4789735;29;20093;-79
2023/08/07 11:28:13;;;;;;;0.00;0.00;;;19.50;82.40;;;;;;4782958;29;20647;-79
2023/08/07 11:30:41;;;;;;;1.27;0.00;;;19.60;82.50;;;;;;4832887;23;20074;-79
2023/08/07 11:33:15;;;;;;;1.08;0.00;;;19.60;83.80;;;;;;4815414;29;22599;-78
2023/08/07 11:35:43;;;;;;;0.00;0.00;;;19.90;84.30;;;;;;4864006;23;20156;-78
2023/08/07 11:38:10;;;;;;;0.75;0.00;;;19.90;84.10;;;;;;4822325;29;20647;-77
2023/08/07 11:40:39;;;;;;;0.45;0.00;;;19.50;83.20;;;;;;4833247;29;20084;-78
2023/08/07 11:43:10;;;;;;;0.00;0.00;;;19.50;83.90;;;;;;4833659;29;20178;-79
2023/08/07 11:45:39;;;;;;;0.35;0.03;;;19.40;84.80;;;;;;4825267;29;20163;-78
2023/08/07 11:48:06;;;;;;;0.73;0.00;;;19.30;84.90;;;;;;4821900;29;20067;-77
2023/08/07 11:50:34;;;;;;;0.05;0.00;;;19.10;84.20;;;;;;4836093;29;20957;-79
2023/08/07 11:53:04;;;;;;;1.13;0.00;;;19.10;84.20;;;;;;4833482;29;20505;-77
2023/08/07 11:55:34;;;;;;;0.60;0.00;;;19.30;83.60;;;;;;4846774;29;20492;-77
2023/08/07 11:58:06;;;;;;;2.05;0.03;;;19.30;83.40;;;;;;4840122;29;20128;-78
2023/08/07 12:00:34;;;;;;;0.00;0.00;;;19.30;83.40;;;;;;4830898;29;20514;-77
2023/08/07 12:03:01;;;;;;;0.10;0.00;;;19.20;83.60;;;;;;4824500;29;20053;-78
2023/08/07 12:05:40;;;;;;;0.77;0.00;;;19.40;84.90;;;;;;4835363;29;20052;-78
2023/08/07 12:08:08;;;;;;;0.10;0.00;;;19.40;85.20;;;;;;4833581;29;20733;-77
2023/08/07 12:10:36;;;;;;;0.75;0.00;;;19.60;84.30;;;;;;4830532;29;21194;-78
2023/08/07 12:13:08;;;;;;;1.80;0.47;;;19.30;84.80;;;;;;4841059;29;20054;-78
2023/08/07 12:16:08;;;;;;;0.20;0.00;;;19.10;85.10;;;;;;4866581;23;20050;31
2023/08/07 12:18:45;;;;;;;0.15;0.00;;;19.00;86.70;;;;;;4769692;29;20055;-77
2023/08/07 12:21:18;;;;;;;1.65;0.00;;;19.10;85.70;;;;;;4776114;29;20031;-77
2023/08/07 12:23:50;;;;;;;0.90;0.00;;;19.20;85.90;;;;;;4759157;29;20112;-77
2023/08/07 12:26:17;;;;;;;2.60;0.00;;;19.20;85.30;;;;;;4725610;29;20140;-77
2023/08/07 12:28:48;;;;;;;4.57;0.43;;;19.00;85.20;;;;;;4759420;29;20722;-78
2023/08/07 12:31:17;;;;;;;0.60;0.00;;;18.90;85.30;;;;;;4830260;23;20070;-77
2023/08/07 12:33:49;;;;;;;0.40;0.00;;;18.90;85.20;;;;;;4879385;23;20041;-78
2023/08/07 12:36:57;;;;;;;2.70;0.00;;;18.90;85.30;;;;;;4814086;29;20161;-79
2023/08/07 12:39:27;;;;;;;0.80;0.00;;;19.00;85.60;;;;;;4785903;29;20053;-79
2023/08/07 12:41:58;;;;;;;1.45;0.10;;;18.90;85.00;;;;;;4798754;29;20054;-76
2023/08/07 12:44:29;;;;;;;1.90;0.00;;;18.90;84.90;;;;;;4783740;29;20057;-78
2023/08/07 12:46:59;;;;;;;0.10;0.00;;;18.70;83.80;;;;;;4786031;29;20353;-77
2023/08/07 12:49:29;;;;;;;0.35;0.00;;;18.70;84.80;;;;;;4787782;29;20058;-79
2023/08/07 12:51:57;;;;;;;0.10;0.00;;;18.80;84.60;;;;;;4798941;29;20058;-78
2023/08/07 12:54:26;;;;;;;0.17;0.00;;;19.00;85.60;;;;;;4802724;29;20085;-77
2023/08/07 12:56:56;;;;;;;0.98;0.00;;;19.10;84.70;;;;;;4801258;29;20157;-76
2023/08/07 12:59:25;;;;;;;0.52;0.00;;;18.60;85.20;;;;;;4808080;29;20053;-78
2023/08/07 13:01:53;;;;;;;0.65;0.00;;;18.50;85.80;;;;;;4784034;29;20061;-78
2023/08/07 13:04:21;;;;;;;0.80;0.22;;;18.90;86.60;;;;;;4791141;29;20054;-78
2023/08/07 13:06:49;;;;;;;0.30;0.00;;;18.70;84.70;;;;;;4794205;29;20050;-77
2023/08/07 13:09:16;;;;;;;0.00;0.00;;;18.80;86.20;;;;;;4782590;29;20065;-78
2023/08/07 13:12:03;;;;;;;0.90;0.00;;;18.90;84.80;;;;;;4786129;29;20501;-76
2023/08/07 13:14:30;;;;;;;0.38;0.00;;;19.10;85.20;;;;;;4787355;29;20490;-78
2023/08/07 13:17:03;;;;;;;0.65;0.00;;;19.10;85.20;;;;;;4815031;29;20594;-79
2023/08/07 13:19:33;;;;;;;1.50;0.00;;;19.30;85.10;;;;;;4790983;29;20046;-79
2023/08/07 13:22:00;;;;;;;3.65;0.08;;;19.20;85.70;;;;;;4792842;29;20050;-78
2023/08/07 13:24:29;;;;;;;5.43;0.00;;;18.70;85.50;;;;;;4806439;29;20069;-77
2023/08/07 13:26:58;;;;;;;0.30;0.00;;;18.60;86.10;;;;;;4778428;29;20050;-77
2023/08/07 13:29:29;;;;;;;0.40;0.00;;;18.30;86.70;;;;;;4792751;29;20046;-77
2023/08/07 13:31:57;;;;;;;1.45;0.00;;;18.50;87.30;;;;;;4799566;29;20054;-78
2023/08/07 13:34:24;;;;;;;0.10;0.00;;;18.40;87.10;;;;;;4789916;29;20051;-79
2023/08/07 13:36:52;;;;;;;0.57;0.03;;;18.40;88.20;;;;;;4790096;29;20066;-78
2023/08/07 13:39:19;;;;;;;0.10;0.00;;;18.20;87.80;;;;;;4797095;29;20183;-78
2023/08/07 13:41:47;;;;;;;1.33;0.05;;;18.20;88.10;;;;;;4788870;29;20062;-77